San Borja, Bolivia
Current Conditions -  °F | °C
As of 9:00 AM on Wednesday 22 Oct 2014 (Local Time) from SLLP Reporting Station
Broken Clouds Broken Clouds  
Wind Chill: 42°   Ceiling: 7000
Heat Index: 45°   Visibility: 6mi
Dew Point: 37°   Wind: 5mph
Humidity: 76%   Direction: 240°WSW
Pressure: 30.71"   Gusts: NA
Location:  14.82°S, 66.85°W
Report Text: SLLP 221300Z 24004KT 200V290 9999 FEW004 SCT014 BKN070 07/03 Q1040
Loading
Personal Weather Stations






























Interactive Weather Map
Tropical Storm Tracking
New forecast layout! Learn more

10-Day Weather Forecast

Advertisements
Track Severe Weather on mobile